Time;durP1;ratioP1;P1;durP2;ratioP2;P2;SDS_P1;SDS_P2;PMS_P1;PMS_P2;Temp;Humidity;BMP_temperature;BMP_pressure;BME280_temperature;BME280_humidity;BME280_pressure;Samples;Min_cycle;Max_cycle;Signal;HPM_P1;HPM_P2
2024/01/30 00:00:08;;;;;;;0.20;0.20;;;;;;;2.05;72.39;103811.59;4991280;28;20089;-90
2024/01/30 00:02:33;;;;;;;0.20;0.20;;;;;;;2.25;72.08;103845.53;4992319;28;20046;-89
2024/01/30 00:04:59;;;;;;;0.20;0.20;;;;;;;2.16;72.40;103847.75;4974678;28;20030;-89
2024/01/30 00:07:24;;;;;;;0.10;0.10;;;;;;;2.18;72.35;103854.69;4958715;28;20034;-90
2024/01/30 00:09:50;;;;;;;0.20;0.20;;;;;;;2.19;72.65;103850.44;4975084;28;20026;-89
2024/01/30 00:12:16;;;;;;;0.20;0.20;;;;;;;2.06;72.62;103823.56;4974866;28;20034;-91
2024/01/30 00:14:43;;;;;;;0.20;0.20;;;;;;;2.25;72.39;103848.09;4974941;28;20023;-90
2024/01/30 00:17:08;;;;;;;0.20;0.20;;;;;;;2.20;72.24;103829.19;4958921;28;20492;-91
2024/01/30 00:19:34;;;;;;;0.20;0.20;;;;;;;2.15;72.58;103849.44;4974516;28;20082;-91
2024/01/30 00:21:59;;;;;;;0.20;0.20;;;;;;;2.22;72.79;103838.66;4990936;28;20480;-92
2024/01/30 00:24:25;;;;;;;0.20;0.20;;;;;;;2.17;72.54;103829.09;4958585;28;20393;-89
2024/01/30 00:26:51;;;;;;;0.10;0.10;;;;;;;2.24;72.49;103839.56;4974573;28;20035;-90
2024/01/30 00:29:19;;;;;;;0.20;0.20;;;;;;;2.15;72.35;103828.16;4974122;28;20042;-90
2024/01/30 00:31:47;;;;;;;0.20;0.20;;;;;;;2.22;73.10;103851.44;4974889;28;20033;-90
2024/01/30 00:34:13;;;;;;;0.20;0.20;;;;;;;2.28;72.68;103835.47;4961702;28;20417;-90
2024/01/30 00:36:38;;;;;;;0.20;0.20;;;;;;;2.29;72.74;103842.31;4994319;28;20018;-91
2024/01/30 00:39:09;;;;;;;0.20;0.20;;;;;;;2.33;72.30;103836.47;4978297;28;20027;-89
2024/01/30 00:41:34;;;;;;;0.20;0.20;;;;;;;2.29;72.80;103834.66;4994660;28;20052;-91
2024/01/30 00:44:00;;;;;;;0.20;0.20;;;;;;;2.28;72.88;103838.03;4994364;28;20101;-90
2024/01/30 00:46:25;;;;;;;0.10;0.10;;;;;;;2.28;72.71;103830.34;4962303;28;20053;-89
2024/01/30 00:48:51;;;;;;;0.20;0.20;;;;;;;2.35;72.53;103833.97;4977801;28;20081;-90
2024/01/30 00:51:16;;;;;;;0.20;0.20;;;;;;;2.45;72.04;103830.94;4978175;28;20100;-90
2024/01/30 00:53:42;;;;;;;0.10;0.10;;;;;;;2.36;72.57;103835.72;4961945;28;20462;-89
2024/01/30 00:56:07;;;;;;;0.20;0.20;;;;;;;2.35;72.51;103837.41;4961881;28;20037;-91
2024/01/30 00:58:33;;;;;;;0.10;0.10;;;;;;;2.32;72.62;103831.31;4995246;28;20603;-89
2024/01/30 01:00:59;;;;;;;0.20;0.20;;;;;;;2.32;72.78;103839.00;4977883;28;20101;-90
2024/01/30 01:03:24;;;;;;;0.20;0.20;;;;;;;2.35;72.44;103834.84;4961681;28;20034;-89
2024/01/30 01:05:50;;;;;;;0.20;0.20;;;;;;;2.24;72.69;103841.25;4977871;28;20030;-91
2024/01/30 01:08:15;;;;;;;0.20;0.20;;;;;;;2.24;73.06;103834.47;4993954;28;20041;-91
2024/01/30 01:10:41;;;;;;;0.20;0.20;;;;;;;2.17;73.36;103821.44;4961538;28;20034;-93
2024/01/30 01:13:06;;;;;;;0.20;0.20;;;;;;;2.19;72.60;103823.22;4977675;28;20108;-90
2024/01/30 01:15:32;;;;;;;0.20;0.20;;;;;;;2.24;72.69;103834.47;4977514;28;20420;-90
2024/01/30 01:17:58;;;;;;;0.20;0.20;;;;;;;2.17;73.13;103826.53;4977525;28;20092;-91
2024/01/30 01:20:23;;;;;;;0.20;0.20;;;;;;;2.23;72.87;103831.84;4961480;28;20066;-90
2024/01/30 01:22:49;;;;;;;0.20;0.20;;;;;;;2.16;72.98;103815.44;4977522;28;20488;-91
2024/01/30 01:25:15;;;;;;;0.20;0.20;;;;;;;2.29;72.38;103826.97;4977757;28;20041;-92
2024/01/30 01:27:42;;;;;;;0.20;0.20;;;;;;;2.28;72.32;103830.34;4977370;28;20026;-90
2024/01/30 01:30:11;;;;;;;0.20;0.20;;;;;;;2.24;72.79;103828.47;4977819;28;20022;-91
2024/01/30 01:32:38;;;;;;;0.20;0.20;;;;;;;2.28;72.71;103830.34;4961108;28;20037;-90
2024/01/30 01:35:05;;;;;;;0.20;0.20;;;;;;;2.34;72.57;103833.13;4977371;28;20030;-90
2024/01/30 01:37:31;;;;;;;0.20;0.20;;;;;;;2.28;72.54;103832.91;4977459;28;20089;-90
2024/01/30 01:39:56;;;;;;;0.20;0.20;;;;;;;2.32;72.50;103827.09;4993543;28;20022;-90
2024/01/30 01:42:22;;;;;;;0.20;0.20;;;;;;;2.34;72.83;103834.81;4976985;28;20026;-91
2024/01/30 01:44:48;;;;;;;0.20;0.20;;;;;;;2.38;72.36;103827.31;4992181;28;20030;-89
2024/01/30 01:47:14;;;;;;;0.20;0.20;;;;;;;2.42;72.23;103839.38;4976871;28;20042;-90
2024/01/30 01:49:39;;;;;;;0.20;0.20;;;;;;;2.37;72.36;103835.81;4976825;28;20030;-91
2024/01/30 01:52:05;;;;;;;0.20;0.20;;;;;;;2.22;72.76;103805.44;4977094;28;20037;-90
2024/01/30 01:54:30;;;;;;;0.10;0.10;;;;;;;2.24;72.92;103829.34;4994105;28;20077;-91
2024/01/30 01:56:56;;;;;;;0.20;0.20;;;;;;;2.27;72.64;103828.63;4976810;28;20503;-89
2024/01/30 01:59:22;;;;;;;0.20;0.20;;;;;;;2.31;72.73;103840.69;4976715;28;20515;-89
2024/01/30 02:01:49;;;;;;;0.20;0.20;;;;;;;2.13;72.91;103810.22;4976200;28;20517;-92
2024/01/30 02:04:15;;;;;;;0.20;0.20;;;;;;;2.30;72.67;103829.59;4977140;28;20030;-90
2024/01/30 02:06:41;;;;;;;0.20;0.20;;;;;;;2.07;72.89;103794.69;4992889;28;20034;-91
2024/01/30 02:09:06;;;;;;;0.20;0.20;;;;;;;2.34;72.66;103829.69;4960573;28;20037;-91
2024/01/30 02:11:32;;;;;;;0.20;0.20;;;;;;;2.38;72.68;103832.44;4976716;28;20122;-89
2024/01/30 02:14:02;;;;;;;0.20;0.20;;;;;;;2.22;72.78;103804.56;4992842;28;20543;-89
2024/01/30 02:16:28;;;;;;;0.20;0.20;;;;;;;2.38;72.48;103826.44;4976219;28;20116;-90
2024/01/30 02:18:53;;;;;;;0.10;0.10;;;;;;;2.44;72.21;103831.75;4976428;28;20531;-91
2024/01/30 02:21:19;;;;;;;0.20;0.20;;;;;;;2.40;72.06;103825.69;4976638;28;20041;-90
2024/01/30 02:23:46;;;;;;;0.20;0.20;;;;;;;2.38;72.21;103827.31;4993652;28;20030;-91
2024/01/30 02:26:11;;;;;;;0.17;0.17;;;;;;;2.42;71.73;103824.03;4976277;28;20044;-90
2024/01/30 02:28:37;;;;;;;0.20;0.20;;;;;;;2.47;71.49;103830.19;4960056;28;20113;-90
2024/01/30 02:31:03;;;;;;;0.20;0.20;;;;;;;2.53;71.15;103832.97;4959793;28;20038;-90
2024/01/30 02:33:29;;;;;;;0.20;0.20;;;;;;;2.49;71.30;103825.16;4976296;28;20401;-91
2024/01/30 02:35:54;;;;;;;0.20;0.20;;;;;;;2.51;71.21;103834.59;4960150;28;20092;-91
2024/01/30 02:38:20;;;;;;;0.20;0.20;;;;;;;2.50;71.02;103825.19;4992406;28;20027;-90
2024/01/30 02:40:46;;;;;;;0.20;0.20;;;;;;;2.41;71.51;103822.31;4992430;28;20353;-91
2024/01/30 02:43:11;;;;;;;0.20;0.20;;;;;;;2.37;71.14;103823.03;4959590;28;20544;-91
2024/01/30 02:45:37;;;;;;;0.20;0.20;;;;;;;2.35;71.33;103816.97;4975696;28;20077;-90
2024/01/30 02:48:03;;;;;;;0.20;0.20;;;;;;;2.44;71.17;103842.84;4993109;28;20030;-88
2024/01/30 02:50:28;;;;;;;0.20;0.20;;;;;;;2.34;71.30;103828.00;4959791;28;20141;-89
2024/01/30 02:52:54;;;;;;;0.20;0.20;;;;;;;2.39;70.98;103843.50;4959838;28;20556;-91
2024/01/30 02:55:19;;;;;;;0.20;0.20;;;;;;;2.29;71.17;103837.19;4991475;28;20420;-90
2024/01/30 02:57:45;;;;;;;0.20;0.20;;;;;;;2.24;71.10;103839.56;4991807;28;20031;-89
2024/01/30 03:00:11;;;;;;;0.10;0.10;;;;;;;2.22;71.37;103840.34;4975130;28;20105;-90
2024/01/30 03:02:36;;;;;;;0.20;0.20;;;;;;;2.09;71.45;103838.16;4975577;28;20058;-91
2024/01/30 03:05:03;;;;;;;0.20;0.20;;;;;;;1.98;71.69;103830.97;4975752;28;20522;-91
2024/01/30 03:07:29;;;;;;;0.20;0.20;;;;;;;1.96;71.74;103832.56;4975553;28;20034;-89
2024/01/30 03:09:55;;;;;;;0.20;0.20;;;;;;;1.93;71.90;103837.56;4975607;28;20030;-90
2024/01/30 03:12:21;;;;;;;0.20;0.20;;;;;;;1.89;72.00;103833.16;4975656;28;20499;-89
2024/01/30 03:14:47;;;;;;;0.20;0.20;;;;;;;1.86;72.10;103839.81;4959027;28;20116;-89
2024/01/30 03:17:12;;;;;;;0.20;0.20;;;;;;;1.87;71.74;103829.69;4975452;28;20041;-90
2024/01/30 03:19:38;;;;;;;0.20;0.20;;;;;;;1.86;71.76;103829.59;4975355;28;20048;-90
2024/01/30 03:22:03;;;;;;;0.20;0.20;;;;;;;1.92;71.54;103825.59;4959585;28;20560;-91
2024/01/30 03:24:29;;;;;;;0.20;0.20;;;;;;;1.78;71.78;103826.78;4975417;28;20468;-89
2024/01/30 03:26:54;;;;;;;0.20;0.20;;;;;;;1.81;71.64;103839.66;4975295;28;20033;-92
2024/01/30 03:29:20;;;;;;;0.20;0.20;;;;;;;1.49;72.24;103801.81;4974881;28;20034;-90
2024/01/30 03:31:45;;;;;;;0.20;0.20;;;;;;;1.74;72.55;103830.00;4975540;28;20050;-88
2024/01/30 03:34:11;;;;;;;0.20;0.20;;;;;;;1.73;72.40;103833.38;4975336;28;20481;-91
2024/01/30 03:36:36;;;;;;;0.20;0.20;;;;;;;1.63;72.86;103826.16;4991579;28;20556;-90
2024/01/30 03:39:02;;;;;;;0.20;0.20;;;;;;;1.67;72.92;103843.34;4975280;28;20037;-91
2024/01/30 03:41:27;;;;;;;0.20;0.20;;;;;;;1.64;72.95;103840.66;4975224;28;20030;-92
2024/01/30 03:43:53;;;;;;;0.20;0.20;;;;;;;1.72;72.47;103831.63;4958592;28;20034;-90
2024/01/30 03:46:18;;;;;;;0.20;0.20;;;;;;;1.78;72.70;103836.13;4959028;28;20027;-91
2024/01/30 03:48:45;;;;;;;0.20;0.20;;;;;;;1.66;72.51;103823.72;4975068;28;20038;-89
2024/01/30 03:51:15;;;;;;;0.20;0.20;;;;;;;1.74;72.94;103837.66;4975118;28;20023;-92
2024/01/30 03:53:41;;;;;;;0.20;0.20;;;;;;;1.69;73.28;103846.84;4959624;28;20575;-89
2024/01/30 03:56:08;;;;;;;0.20;0.20;;;;;;;1.65;72.97;103834.75;4958682;28;20030;-90
2024/01/30 03:58:33;;;;;;;0.20;0.20;;;;;;;1.67;73.00;103839.13;4974601;28;20530;-90
2024/01/30 04:00:59;;;;;;;0.20;0.20;;;;;;;1.66;73.12;103837.34;4955265;28;20054;-88
2024/01/30 04:03:24;;;;;;;0.20;0.20;;;;;;;1.60;73.00;103839.69;4987778;28;20101;-89
2024/01/30 04:05:51;;;;;;;0.20;0.20;;;;;;;1.60;72.99;103841.38;4971644;28;20062;-90
2024/01/30 04:08:17;;;;;;;0.20;0.20;;;;;;;1.68;72.32;103842.56;4974022;28;20042;-88
2024/01/30 04:10:43;;;;;;;0.20;0.20;;;;;;;1.60;71.83;103842.25;4991848;28;20039;-89
2024/01/30 04:13:08;;;;;;;0.20;0.20;;;;;;;1.51;72.09;103834.22;4975389;28;20046;-88
2024/01/30 04:15:34;;;;;;;0.20;0.20;;;;;;;1.39;72.95;103841.41;4975358;28;20034;-89
2024/01/30 04:18:00;;;;;;;0.20;0.20;;;;;;;1.35;73.25;103825.06;4975443;28;20030;-90
2024/01/30 04:20:26;;;;;;;0.20;0.20;;;;;;;1.45;72.91;103833.97;4975200;28;20503;-89
2024/01/30 04:22:51;;;;;;;0.20;0.20;;;;;;;1.42;72.76;103838.97;4967843;28;20038;-90
2024/01/30 04:25:17;;;;;;;0.20;0.20;;;;;;;1.48;72.92;103831.56;4958900;28;20027;-88
2024/01/30 04:27:42;;;;;;;0.20;0.20;;;;;;;1.54;72.84;103843.66;4958371;28;20030;-88
2024/01/30 04:30:08;;;;;;;0.20;0.20;;;;;;;1.44;72.82;103824.56;4974752;28;20065;-88
2024/01/30 04:32:34;;;;;;;0.20;0.20;;;;;;;1.23;73.15;103799.09;4942403;28;20038;-90
2024/01/30 04:35:00;;;;;;;0.20;0.20;;;;;;;1.42;73.38;103837.28;4974601;28;20077;-88
2024/01/30 04:37:25;;;;;;;0.20;0.20;;;;;;;1.44;73.19;103840.75;4958591;28;20035;-92
2024/01/30 04:39:51;;;;;;;0.20;0.20;;;;;;;1.54;73.17;103841.13;4975084;28;20098;-91
2024/01/30 04:42:17;;;;;;;0.20;0.20;;;;;;;1.65;73.02;103855.16;4957862;28;20042;-87
2024/01/30 04:44:42;;;;;;;0.20;0.20;;;;;;;1.72;72.08;103836.75;4957931;28;20465;-87
2024/01/30 04:47:10;;;;;;;0.20;0.20;;;;;;;1.76;71.92;103848.81;4958337;28;20105;-89
2024/01/30 04:49:36;;;;;;;0.20;0.20;;;;;;;1.69;70.85;103826.44;4975101;28;20026;-89
2024/01/30 04:52:01;;;;;;;0.20;0.20;;;;;;;1.61;71.20;103838.88;4974460;28;20030;-90
2024/01/30 04:54:27;;;;;;;0.20;0.20;;;;;;;1.67;71.26;103849.34;4974600;28;20027;-89
2024/01/30 04:56:52;;;;;;;0.20;0.20;;;;;;;1.61;71.02;103851.63;4973692;28;20031;-89
2024/01/30 04:59:18;;;;;;;0.20;0.20;;;;;;;1.48;71.06;103825.59;4958411;28;20038;-89
2024/01/30 05:01:44;;;;;;;0.20;0.20;;;;;;;1.51;70.96;103846.97;4986122;28;20084;-89
2024/01/30 05:04:09;;;;;;;0.20;0.20;;;;;;;1.56;70.60;103850.56;4993382;28;20026;-90
2024/01/30 05:06:35;;;;;;;0.20;0.20;;;;;;;1.52;70.84;103845.28;4978094;28;20081;-88
2024/01/30 05:09:01;;;;;;;0.20;0.20;;;;;;;1.49;70.47;103848.59;4961150;28;20041;-87
2024/01/30 05:11:26;;;;;;;0.20;0.20;;;;;;;1.36;70.69;103834.47;4956769;28;20038;-86
2024/01/30 05:13:52;;;;;;;0.20;0.20;;;;;;;1.32;70.86;103840.25;4976654;28;20115;-90
2024/01/30 05:16:17;;;;;;;0.20;0.20;;;;;;;1.18;71.33;103841.41;4961701;28;20027;-90
2024/01/30 05:18:43;;;;;;;0.20;0.20;;;;;;;1.07;71.69;103827.31;4974668;28;20038;-85
2024/01/30 05:21:09;;;;;;;0.20;0.20;;;;;;;1.19;71.36;103848.22;4973994;28;20042;-85
2024/01/30 05:23:34;;;;;;;0.13;0.13;;;;;;;1.17;71.03;103848.97;4973665;28;20039;-92
2024/01/30 05:26:00;;;;;;;0.20;0.20;;;;;;;1.18;71.09;103845.59;4978671;28;20031;-88
2024/01/30 05:28:26;;;;;;;0.20;0.20;;;;;;;1.03;71.42;103840.75;4980868;28;20093;-88
2024/01/30 05:30:52;;;;;;;0.20;0.20;;;;;;;1.08;71.29;103836.69;4979373;28;20049;-87
2024/01/30 05:33:17;;;;;;;0.20;0.20;;;;;;;1.20;70.59;103844.88;4996240;28;20026;-91
2024/01/30 05:35:43;;;;;;;0.20;0.20;;;;;;;1.08;71.15;103849.44;4981176;28;20035;-89
2024/01/30 05:38:08;;;;;;;0.10;0.10;;;;;;;0.99;70.94;103841.44;4985736;28;20042;-89
2024/01/30 05:40:34;;;;;;;0.20;0.20;;;;;;;0.99;71.54;103852.50;4975253;28;20043;-87
2024/01/30 05:43:01;;;;;;;0.20;0.20;;;;;;;0.99;71.54;103855.06;4961667;28;20027;-93
2024/01/30 05:45:26;;;;;;;0.20;0.20;;;;;;;0.99;70.84;103861.84;4975474;28;20034;-91
2024/01/30 05:47:52;;;;;;;0.20;0.20;;;;;;;1.02;70.76;103869.59;4978684;28;20030;-92
2024/01/30 05:50:19;;;;;;;0.10;0.10;;;;;;;0.92;71.51;103863.25;4974643;28;20073;-87
2024/01/30 05:52:45;;;;;;;0.10;0.10;;;;;;;0.85;71.21;103843.38;4956668;28;20029;-86
2024/01/30 05:55:11;;;;;;;0.20;0.20;;;;;;;0.89;71.10;103846.97;4972438;28;20417;-84
2024/01/30 05:57:37;;;;;;;0.20;0.20;;;;;;;0.83;71.76;103848.44;4959046;28;20031;-91
2024/01/30 06:00:04;;;;;;;0.20;0.20;;;;;;;0.82;71.64;103849.22;4970483;28;20702;-88
2024/01/30 06:02:30;;;;;;;0.20;0.20;;;;;;;0.99;72.13;103874.59;4987734;28;20050;-90
2024/01/30 06:04:56;;;;;;;0.20;0.20;;;;;;;0.96;72.62;103870.19;4983517;28;20101;-85
2024/01/30 06:07:22;;;;;;;0.20;0.20;;;;;;;0.78;73.05;103843.91;4989661;28;20416;-87
2024/01/30 06:09:47;;;;;;;0.20;0.20;;;;;;;0.97;72.90;103871.94;4992093;28;20046;-91
2024/01/30 06:12:13;;;;;;;0.20;0.20;;;;;;;1.08;72.83;103862.19;4980398;28;20096;-92
2024/01/30 06:14:38;;;;;;;0.20;0.20;;;;;;;1.03;72.73;103874.75;4975499;28;20058;-90
2024/01/30 06:17:04;;;;;;;0.20;0.20;;;;;;;1.00;73.00;103866.13;4972298;28;20488;-84
2024/01/30 06:19:30;;;;;;;0.20;0.20;;;;;;;1.10;72.97;103870.81;4955609;28;20069;-90
2024/01/30 06:21:58;;;;;;;0.20;0.20;;;;;;;1.01;72.07;103871.28;4951155;28;20066;-91
2024/01/30 06:24:24;;;;;;;0.20;0.20;;;;;;;0.98;73.20;103862.63;4963692;28;20057;-90
2024/01/30 06:26:50;;;;;;;0.20;0.20;;;;;;;1.06;73.05;103879.97;4996733;28;20054;-88
2024/01/30 06:29:16;;;;;;;0.20;0.20;;;;;;;1.10;73.17;103870.81;4997300;28;20038;-92
2024/01/30 06:31:42;;;;;;;0.20;0.20;;;;;;;1.13;73.00;103876.03;4985672;28;20034;-88
2024/01/30 06:34:11;;;;;;;0.20;0.20;;;;;;;1.10;72.88;103869.13;4992122;28;20412;-85
2024/01/30 06:36:37;;;;;;;0.20;0.20;;;;;;;1.07;72.58;103865.56;4971814;28;20027;-84
2024/01/30 06:39:03;;;;;;;0.20;0.20;;;;;;;1.16;72.56;103873.59;4958905;28;20053;-90
2024/01/30 06:41:29;;;;;;;0.20;0.20;;;;;;;1.13;73.13;103883.66;4979170;28;20484;-91
2024/01/30 06:43:55;;;;;;;0.20;0.20;;;;;;;1.18;73.00;103884.75;4962494;28;20045;-90
2024/01/30 06:46:20;;;;;;;0.20;0.20;;;;;;;1.21;72.08;103874.66;4962118;28;20027;-88
2024/01/30 06:48:46;;;;;;;0.20;0.20;;;;;;;1.24;70.53;103879.88;4972022;28;20123;-92
2024/01/30 06:51:12;;;;;;;0.20;0.20;;;;;;;1.16;70.42;103888.88;4970427;28;20038;-91
2024/01/30 06:53:37;;;;;;;0.20;0.20;;;;;;;1.05;71.08;103887.56;4974962;28;20393;-90
2024/01/30 06:56:03;;;;;;;0.20;0.20;;;;;;;1.08;70.69;103888.59;4962860;28;20034;-92
2024/01/30 06:58:30;;;;;;;0.20;0.20;;;;;;;1.07;71.19;103886.81;4991724;28;20033;-86
2024/01/30 07:00:56;;;;;;;0.20;0.20;;;;;;;1.11;71.15;103886.16;4982343;28;20054;-87
2024/01/30 07:03:21;;;;;;;0.20;0.20;;;;;;;0.99;70.72;103877.13;4970300;28;20031;-88
2024/01/30 07:05:47;;;;;;;0.20;0.20;;;;;;;1.01;70.36;103885.72;4973825;28;20026;-90
2024/01/30 07:08:14;;;;;;;0.20;0.20;;;;;;;1.02;70.97;103890.88;4968061;28;20554;-89
2024/01/30 07:10:40;;;;;;;0.20;0.20;;;;;;;1.01;70.57;103872.97;4976818;28;20077;-89
2024/01/30 07:13:05;;;;;;;0.20;0.20;;;;;;;1.17;70.10;103895.72;4992752;28;20026;-92
2024/01/30 07:15:31;;;;;;;0.20;0.20;;;;;;;1.17;70.25;103892.31;4980194;28;20034;-91
2024/01/30 07:17:56;;;;;;;0.20;0.20;;;;;;;1.12;70.14;103881.94;4948492;28;20592;-86
2024/01/30 07:20:22;;;;;;;0.20;0.20;;;;;;;1.08;70.24;103865.66;4972384;28;20073;-86
2024/01/30 07:22:48;;;;;;;0.20;0.20;;;;;;;1.29;70.34;103896.28;4959158;28;20575;-90
2024/01/30 07:25:13;;;;;;;0.10;0.10;;;;;;;1.33;69.60;103887.91;4958061;28;20109;-90
2024/01/30 07:27:39;;;;;;;0.20;0.20;;;;;;;1.31;69.17;103881.88;4951710;28;20092;-90
2024/01/30 07:30:05;;;;;;;0.20;0.20;;;;;;;1.14;69.50;103880.31;4990218;28;20088;-92
2024/01/30 07:32:31;;;;;;;0.20;0.20;;;;;;;1.04;70.38;103884.16;4981124;28;20038;-89
2024/01/30 07:34:57;;;;;;;0.20;0.20;;;;;;;1.02;70.43;103867.94;4976567;28;20041;-88
2024/01/30 07:37:22;;;;;;;0.20;0.20;;;;;;;1.30;70.54;103903.09;4990651;28;20117;-85
2024/01/30 07:39:48;;;;;;;0.20;0.20;;;;;;;1.33;70.54;103893.03;4990632;28;20102;-87
2024/01/30 07:42:13;;;;;;;0.20;0.20;;;;;;;1.30;70.22;103880.16;4989006;28;20069;-83
2024/01/30 07:44:39;;;;;;;0.20;0.20;;;;;;;1.32;70.99;103878.53;4990075;28;20023;-85
2024/01/30 07:47:05;;;;;;;0.20;0.20;;;;;;;1.37;71.12;103884.66;4975086;28;20026;-85
2024/01/30 07:49:30;;;;;;;0.20;0.20;;;;;;;1.49;71.01;103893.66;4990816;28;20105;-89
2024/01/30 07:51:56;;;;;;;0.20;0.20;;;;;;;1.54;70.65;103887.91;4953329;28;20034;-84
2024/01/30 07:54:21;;;;;;;0.20;0.20;;;;;;;1.75;70.49;103895.56;4987377;28;20783;-90
2024/01/30 07:56:47;;;;;;;0.20;0.20;;;;;;;1.79;70.63;103897.44;4973978;28;20027;-85
2024/01/30 07:59:13;;;;;;;0.20;0.20;;;;;;;1.91;70.24;103895.38;4943425;28;20485;-90
2024/01/30 08:01:38;;;;;;;0.20;0.20;;;;;;;1.78;70.02;103874.41;4986360;28;20042;-91
2024/01/30 08:04:04;;;;;;;0.20;0.20;;;;;;;1.98;70.51;103899.91;4992903;28;20030;-87
2024/01/30 08:06:29;;;;;;;0.20;0.20;;;;;;;2.01;70.36;103877.03;4961517;28;20085;-86
2024/01/30 08:08:57;;;;;;;0.20;0.20;;;;;;;2.16;70.40;103896.28;4960151;28;20132;-89
2024/01/30 08:11:25;;;;;;;0.20;0.20;;;;;;;2.21;70.41;103884.56;4956702;28;20081;-92
2024/01/30 08:13:52;;;;;;;0.20;0.20;;;;;;;2.32;69.99;103875.63;4992842;28;20034;-87
2024/01/30 08:16:17;;;;;;;0.20;0.20;;;;;;;2.40;70.36;103902.34;4961293;28;20022;-90
2024/01/30 08:18:43;;;;;;;0.20;0.20;;;;;;;2.46;69.83;103877.03;4974748;28;20109;-88
2024/01/30 08:21:09;;;;;;;0.20;0.20;;;;;;;2.80;69.07;103893.56;4961661;28;20475;-90
2024/01/30 08:23:34;;;;;;;0.20;0.20;;;;;;;2.87;68.97;103891.28;4967789;28;20030;-86
2024/01/30 08:26:00;;;;;;;0.20;0.20;;;;;;;2.98;68.56;103906.13;4981571;28;20089;-86
2024/01/30 08:28:26;;;;;;;0.20;0.20;;;;;;;2.99;68.28;103880.59;4940800;28;20058;-90
2024/01/30 08:30:51;;;;;;;0.20;0.20;;;;;;;3.17;67.55;103900.81;4956948;28;20482;-89
2024/01/30 08:33:17;;;;;;;0.20;0.20;;;;;;;3.40;67.20;103904.13;4957358;28;20420;-87
2024/01/30 08:35:43;;;;;;;0.20;0.20;;;;;;;3.45;67.11;103906.03;4991738;28;20022;-89
2024/01/30 08:38:08;;;;;;;0.20;0.20;;;;;;;3.40;66.93;103878.53;4943255;28;20109;-84
2024/01/30 08:40:34;;;;;;;0.20;0.20;;;;;;;3.60;66.59;103900.53;4956694;28;20529;-85
2024/01/30 08:43:00;;;;;;;0.20;0.20;;;;;;;3.69;66.37;103893.16;4974294;28;20423;-89
2024/01/30 08:45:25;;;;;;;0.20;0.20;;;;;;;3.89;65.78;103900.59;4957312;28;20030;-83
2024/01/30 08:47:51;;;;;;;0.20;0.20;;;;;;;4.64;68.65;103892.56;4971241;28;20030;-91
2024/01/30 08:50:16;;;;;;;0.20;0.20;;;;;;;5.12;67.75;103895.56;4948989;28;20030;-89
2024/01/30 08:52:42;;;;;;;0.20;0.20;;;;;;;5.77;62.10;103904.00;4976257;28;20058;-92
2024/01/30 08:55:08;;;;;;;0.20;0.20;;;;;;;5.40;60.72;103900.53;4986594;28;20174;-87
2024/01/30 08:57:33;;;;;;;0.20;0.20;;;;;;;5.15;61.35;103895.63;4993922;28;20117;-92
2024/01/30 08:59:59;;;;;;;0.20;0.20;;;;;;;5.01;62.16;103897.81;4948682;28;20030;-91
2024/01/30 09:02:24;;;;;;;0.20;0.20;;;;;;;4.92;62.11;103897.63;4970026;28;20046;-87
2024/01/30 09:04:50;;;;;;;0.20;0.20;;;;;;;4.85;62.30;103901.69;4986551;28;20494;-94
2024/01/30 09:07:15;;;;;;;0.20;0.20;;;;;;;4.75;62.54;103879.19;4997540;28;20038;-92
2024/01/30 09:09:41;;;;;;;0.20;0.20;;;;;;;4.81;62.44;103888.72;5006035;28;20450;-91
2024/01/30 09:12:09;;;;;;;0.20;0.20;;;;;;;4.84;62.14;103889.69;4988125;28;20523;-83
2024/01/30 09:14:35;;;;;;;0.20;0.20;;;;;;;4.96;62.36;103896.84;5009542;28;20026;-91
2024/01/30 09:17:01;;;;;;;0.20;0.20;;;;;;;5.13;61.96;103895.59;4983451;28;20129;-93
2024/01/30 09:19:26;;;;;;;0.20;0.20;;;;;;;5.05;61.68;103889.41;4978001;28;20038;-90
2024/01/30 09:21:52;;;;;;;0.20;0.20;;;;;;;5.08;61.57;103884.34;4986192;28;20488;-89
2024/01/30 09:24:17;;;;;;;0.20;0.20;;;;;;;5.22;60.61;103887.28;5081522;22;20061;-93
2024/01/30 09:26:43;;;;;;;0.20;0.20;;;;;;;5.17;61.79;103888.84;5035388;28;20022;-88
2024/01/30 09:29:08;;;;;;;0.20;0.20;;;;;;;5.33;61.13;103901.25;5034269;28;20034;-89
2024/01/30 09:31:34;;;;;;;0.20;0.20;;;;;;;5.61;61.20;103891.66;5006425;28;20034;-88
2024/01/30 09:34:00;;;;;;;0.20;0.20;;;;;;;5.51;60.37;103889.69;5016448;28;20056;-92
2024/01/30 09:36:26;;;;;;;0.20;0.20;;;;;;;5.57;59.01;103885.56;5014587;28;20503;-86
2024/01/30 09:38:51;;;;;;;0.20;0.20;;;;;;;5.71;59.34;103885.91;5014993;28;20091;-88
2024/01/30 09:41:17;;;;;;;0.20;0.20;;;;;;;5.93;58.33;103870.16;5032680;28;20025;-84
2024/01/30 09:43:43;;;;;;;0.20;0.20;;;;;;;5.98;57.17;103868.53;5018527;28;20055;-84
2024/01/30 09:46:12;;;;;;;0.20;0.20;;;;;;;6.07;56.55;103859.28;5000773;28;20033;-85
2024/01/30 09:48:38;;;;;;;0.20;0.20;;;;;;;6.09;55.65;103865.31;4997852;28;20033;-85
2024/01/30 09:51:03;;;;;;;0.20;0.20;;;;;;;6.15;56.75;103852.63;5006777;28;20025;-87
2024/01/30 09:53:29;;;;;;;0.20;0.20;;;;;;;6.17;56.63;103838.09;4997957;28;20108;-85
2024/01/30 09:55:55;;;;;;;0.20;0.20;;;;;;;6.37;56.98;103841.91;5032079;28;20142;-86
2024/01/30 09:58:21;;;;;;;0.22;0.22;;;;;;;6.45;55.06;103858.38;4996108;28;20471;-83
2024/01/30 10:00:47;;;;;;;0.20;0.20;;;;;;;6.45;55.84;103840.38;4994403;28;20448;-93
2024/01/30 10:03:14;;;;;;;0.20;0.20;;;;;;;6.52;54.33;103849.94;5041413;28;20031;-92
2024/01/30 10:05:40;;;;;;;0.20;0.20;;;;;;;6.53;54.90;103843.97;5002884;28;20071;-86
2024/01/30 10:08:06;;;;;;;0.30;0.30;;;;;;;6.63;55.06;103844.16;5005575;28;20037;-91
2024/01/30 10:10:32;;;;;;;0.20;0.20;;;;;;;6.94;54.27;103843.00;5001321;28;20057;-91
2024/01/30 10:12:57;;;;;;;0.20;0.20;;;;;;;6.96;52.06;103834.44;5002793;28;20041;-89
2024/01/30 10:15:23;;;;;;;0.20;0.20;;;;;;;6.91;51.77;103841.22;5022493;28;20017;-89
2024/01/30 10:17:49;;;;;;;0.20;0.20;;;;;;;6.92;52.27;103840.38;5004566;28;20041;-90
2024/01/30 10:20:14;;;;;;;0.20;0.20;;;;;;;7.10;51.62;103839.84;4982586;28;20044;-87
2024/01/30 10:22:44;;;;;;;0.20;0.20;;;;;;;6.94;51.92;103833.56;5012962;28;20026;-85
2024/01/30 10:25:09;;;;;;;0.20;0.20;;;;;;;7.18;51.39;103835.69;5013590;28;20056;-86
2024/01/30 10:27:35;;;;;;;0.20;0.20;;;;;;;7.32;51.52;103835.91;5009022;28;20428;-92
2024/01/30 10:30:00;;;;;;;0.20;0.20;;;;;;;7.14;50.24;103829.59;4999164;28;20033;-87
2024/01/30 10:32:27;;;;;;;0.20;0.20;;;;;;;7.12;50.64;103828.72;5009728;28;20537;-89
2024/01/30 10:34:52;;;;;;;0.20;0.20;;;;;;;7.03;50.16;103815.69;4996799;28;20438;-86
2024/01/30 10:37:18;;;;;;;0.20;0.20;;;;;;;7.06;49.95;103820.88;5017541;28;20058;-88
2024/01/30 10:39:44;;;;;;;0.20;0.20;;;;;;;7.22;49.99;103826.31;4995798;28;20121;-87
2024/01/30 10:42:14;;;;;;;0.20;0.20;;;;;;;7.14;48.63;103828.75;4999678;28;20028;-89
2024/01/30 10:45:12;;;;;;;0.20;0.20;;;;;;;7.18;48.11;103821.09;5001220;28;20129;-87
2024/01/30 10:47:38;;;;;;;0.20;0.20;;;;;;;7.32;47.65;103812.72;5003569;28;20053;-92
2024/01/30 10:50:04;;;;;;;0.20;0.20;;;;;;;7.35;47.61;103797.31;5003313;28;20025;-88
2024/01/30 10:52:30;;;;;;;0.20;0.20;;;;;;;7.39;47.29;103799.97;5024429;28;20545;-88
2024/01/30 10:54:56;;;;;;;0.20;0.20;;;;;;;7.47;47.67;103797.47;4996736;28;20037;-87
2024/01/30 10:57:23;;;;;;;0.20;0.20;;;;;;;7.57;46.89;103801.94;4994433;28;20064;-89
2024/01/30 10:59:48;;;;;;;0.20;0.20;;;;;;;7.40;46.23;103785.38;5016066;28;20407;-85
2024/01/30 11:02:14;;;;;;;0.20;0.20;;;;;;;7.47;46.26;103787.19;4994558;28;20037;-90
2024/01/30 11:04:43;;;;;;;0.20;0.20;;;;;;;7.67;46.18;103793.50;4996705;28;20045;-86
2024/01/30 11:07:18;;;;;;;0.20;0.20;;;;;;;7.68;45.48;103784.06;5020461;28;20483;-88
2024/01/30 11:09:50;;;;;;;0.20;0.20;;;;;;;7.65;45.32;103777.13;5030138;28;20025;-87
2024/01/30 11:12:16;;;;;;;0.20;0.20;;;;;;;7.44;45.44;103771.69;5010915;28;20033;-82
2024/01/30 11:14:43;;;;;;;0.20;0.20;;;;;;;7.57;46.92;103773.59;5018318;28;20120;-86
2024/01/30 11:17:10;;;;;;;0.20;0.20;;;;;;;7.69;46.02;103772.91;4992763;28;20536;-84
2024/01/30 11:19:35;;;;;;;0.20;0.20;;;;;;;7.80;46.42;103770.47;5010157;28;20033;-85
2024/01/30 11:22:01;;;;;;;0.20;0.20;;;;;;;7.63;46.20;103765.06;4992828;28;20036;-85
2024/01/30 11:24:27;;;;;;;0.20;0.20;;;;;;;7.46;46.14;103764.84;5014081;28;20064;-86
2024/01/30 11:26:57;;;;;;;0.20;0.20;;;;;;;7.30;47.17;103762.91;4996421;28;20791;-84